• Join FlightAware (Why Join?)
  • Login
  • US Flag 
01:07PM EDT


 

Airport Tracker/Info


-or-


 

Live Flight TrackerFlight Track Log ✈ AWE992 ✈ 25-May-2012 ✈ KDEN - KPHL

Flight Track Log - Related Links

Times and Time Zones

All times are in EDT time to prevent confusion due to time zone crossing. See the AWE992 flight status page for this flight to view local times or setup timezone preferences in your user account.

Time Position Orientation Groundspeed Altitude Reporting Facility
EDT Latitude Longitude Course Direction KTS MPH feet Rate Location/Type
02:59AM 39.8773 -104.6320 90° East 48 55 5,500  Level FlightAware ADS-B
03:00AM 39.8772 -104.6140 89° East 187 215 6,400 3,480 Climbing FlightAware ADS-B
03:00AM 39.8775 -104.5970 86° East 182 209 7,300 2,400 Climbing FlightAware ADS-B
03:00AM 39.8781 -104.5850 86° East 191 220 7,500 660 Climbing FlightAware ADS-B
03:00AM 39.8792 -104.5660 86° East 207 238 7,600 540 Climbing FlightAware ADS-B
03:01AM 39.8803 -104.5460 86° East 226 260 7,800 720 Climbing FlightAware ADS-B
03:01AM 39.8815 -104.5220 86° East 249 287 8,000 1,260 Climbing FlightAware ADS-B
03:01AM 39.8827 -104.4980 86° East 258 297 8,500 1,980 Climbing FlightAware ADS-B
03:01AM 39.8839 -104.4750 85° East 265 305 9,000 1,500 Climbing FlightAware ADS-B
03:02AM 39.8853 -104.4540 85° East 279 321 9,200 1,260 Climbing FlightAware ADS-B
03:02AM 39.8876 -104.4220 83° East 290 334 9,700 1,800 Climbing FlightAware ADS-B
03:03AM 39.8926 -104.3670 82° East 307 353 10,700 1,260 Climbing FlightAware ADS-B
03:03AM 39.8987 -104.3100 83° East 339 390 11,000 780 Climbing FlightAware ADS-B
03:04AM 39.9048 -104.2450 83° East 369 425 11,500 1,560 Climbing FlightAware ADS-B
03:04AM 39.9110 -104.1770 83° East 376 433 12,600 1,920 Climbing FlightAware ADS-B
03:04AM 39.9169 -104.1130 81° East 386 444 13,400 1,560 Climbing FlightAware ADS-B
03:05AM 39.9186 -104.0990 75° East 391 450 13,500 900 Climbing FlightAware ADS-B
03:05AM 39.9220 -104.0820 71° East 399 459 13,600 2,400 Climbing FlightAware ADS-B
03:05AM 39.9387 -104.0190 67° East 397 457 14,900 2,340 Climbing FlightAware ADS-B
03:06AM 39.9606 -103.9530 66° East 403 464 15,900 1,860 Climbing FlightAware ADS-B
03:06AM 39.9767 -103.9050 66° East 408 470 16,500 2,220 Climbing FlightAware ADS-B
03:07AM 39.9995 -103.8380 67° East 401 461 17,800 2,160 Climbing FlightAware ADS-B
03:07AM 40.0153 -103.7890 69° East 405 466 18,400 1,320 Climbing FlightAware ADS-B
03:07AM 40.0245 -103.7570 73° East 411 473 18,600 1,080 Climbing FlightAware ADS-B
03:08AM 40.0412 -103.6850 73° East 423 487 19,200 1,500 Climbing FlightAware ADS-B
03:08AM 40.0581 -103.6110 74° East 425 489 20,100 1,800 Climbing FlightAware ADS-B
03:08AM 40.0703 -103.5570 70° East 423 487 20,800 1,800 Climbing FlightAware ADS-B
03:09AM 40.0755 -103.5380 65° Northeast 424 488 21,000 1,860 Climbing FlightAware ADS-B
03:09AM 40.0824 -103.5190 57° Northeast 424 488 21,300 1,800 Climbing FlightAware ADS-B
03:09AM 40.0947 -103.4940 50° Northeast 424 488 21,600 1,080 Climbing FlightAware ADS-B
03:09AM 40.1265 -103.4440 44° Northeast 432 497 22,000 1,080 Climbing FlightAware ADS-B
03:10AM 40.1636 -103.3970 43° Northeast 436 502 22,500 1,500 Climbing FlightAware ADS-B
03:10AM 40.1842 -103.3720 47° Northeast 433 498 23,000 1,560 Climbing FlightAware ADS-B
03:10AM 40.2117 -103.3330 52° Northeast 437 503 23,400 780 Climbing FlightAware ADS-B
03:11AM 40.2502 -103.2690 54° Northeast 450 518 23,700 840 Climbing FlightAware ADS-B
03:11AM 40.2822 -103.2120 51° Northeast 456 525 24,200 960 Climbing FlightAware ADS-B
03:12AM 40.3227 -103.1470 49° Northeast 465 535 24,600 900 Climbing FlightAware ADS-B
03:12AM 40.3661 -103.0810 50° Northeast 473 544 25,100 960 Climbing FlightAware ADS-B
03:13AM 40.4095 -103.0130 49° Northeast 479 551 25,600 1,080 Climbing FlightAware ADS-B
03:13AM 40.4266 -102.9870 50° Northeast 479 551 25,900 1,080 Climbing FlightAware ADS-B
03:14AM 40.4707 -102.9170 51° Northeast 485 558 26,400 660 Climbing FlightAware ADS-B
03:14AM 40.5265 -102.8270 52° Northeast 499 574 26,700 600 Climbing FlightAware ADS-B
03:15AM 40.5566 -102.7770 54° Northeast 510 587 27,000 780 Climbing FlightAware ADS-B
03:15AM 40.5981 -102.7010 54° Northeast 517 595 27,400 480 Climbing FlightAware ADS-B
03:15AM 40.6344 -102.6340 57° Northeast 530 610 27,500 360 Climbing FlightAware ADS-B
03:16AM 40.6443 -102.6140 60° Northeast 534 615 27,600 360 Climbing FlightAware ADS-B
03:16AM 40.6542 -102.5910 68° East 538 619 27,600 300 Level FlightAware ADS-B
03:16AM 40.6636 -102.5610 72° East 540 621 27,700 840 Climbing FlightAware ADS-B
03:16AM 40.6723 -102.5260 77° East 540 621 27,900 960 Climbing FlightAware ADS-B
03:17AM 40.6892 -102.4290 77° East 540 621 28,400 960 Climbing FlightAware ADS-B
03:17AM 40.7058 -102.3330 77° East 542 624 28,900 1,200 Climbing FlightAware ADS-B
03:18AM 40.7225 -102.2360 77° East 542 624 29,600 1,260 Climbing FlightAware ADS-B
03:18AM 40.7390 -102.1390 77° East 539 620 30,200 1,200 Climbing FlightAware ADS-B
03:19AM 40.7553 -102.0420 77° East 539 620 30,800 900 Climbing FlightAware ADS-B
03:19AM 40.7716 -101.9460 78° East 542 624 31,100 900 Climbing FlightAware ADS-B
03:20AM 40.7878 -101.8490 78° East 540 621 31,700 1,200 Climbing FlightAware ADS-B
03:20AM 40.8039 -101.7520 78° East 538 619 32,300 960 Climbing FlightAware ADS-B
03:21AM 40.8199 -101.6560 78° East 540 621 32,700 840 Climbing FlightAware ADS-B
03:21AM 40.8360 -101.5580 78° East 539 620 33,200 1,080 Climbing FlightAware ADS-B
03:22AM 40.8519 -101.4610 78° East 534 615 33,800 1,080 Climbing FlightAware ADS-B
03:22AM 40.8675 -101.3650 78° East 533 613 34,300 840 Climbing FlightAware ADS-B
03:23AM 40.8834 -101.2660 78° East 534 615 34,700 420 Climbing FlightAware ADS-B
03:24AM 40.9131 -101.0775 78° East 535 616 35,000 120 Climbing Denver Center
03:25AM 40.9486 -100.8586 78° East 537 618 35,000  Level Denver Center
03:26AM 40.9792 -100.6681 78° East 539 620 35,000  Level Denver Center
03:27AM 41.0081 -100.4797 77° East 539 620 35,000  Level Denver Center
03:28AM 41.0406 -100.2936 71° East 540 621 35,000  Level Denver Center
03:29AM 41.0950 -100.0836 71° East 542 624 35,000  Level Denver Center
03:30AM 41.1408 -99.9056 71° East 536 617 35,000  Level Denver Center
03:31AM 41.1875 -99.7256 71° East 538 619 35,000  Level Denver Center
03:32AM 41.2411 -99.5158 78° East 538 619 35,000  Level Denver Center
03:33AM 41.2683 -99.3394 80° East 537 618 35,000  Level Denver Center
03:34AM 41.2956 -99.1403 80° East 543 625 35,000  Level Denver Center
03:35AM 41.3225 -98.9392 80° East 543 625 35,000  Level Denver Center
03:36AM 41.3492 -98.7356 80° East 545 627 35,100  Climbing Denver Center
03:37AM 41.3742 -98.5353 80° East 543 625 35,000 -60 Descending Denver Center
03:38AM 41.3989 -98.3386 80° East 538 619 35,000  Level Denver Center
03:39AM 41.4242 -98.1406 81° East 539 620 35,000  Level Denver Center
03:40AM 41.4500 -97.9081 80° East 537 618 35,000  Level Minneapolis Center
03:41AM 41.4747 -97.7106 80° East 537 618 35,000  Level Minneapolis Center
03:42AM 41.5008 -97.5131 82° East 537 618 35,000  Level Minneapolis Center
03:43AM 41.5206 -97.3150 81° East 537 618 35,000  Level Minneapolis Center
03:44AM 41.5439 -97.1197 81° East 537 618 35,000  Level Minneapolis Center
03:45AM 41.5669 -96.9242 81° East 537 618 35,000  Level Minneapolis Center
03:46AM 41.5869 -96.7508 81° East 537 618 35,000  Level Minneapolis Center
03:47AM 41.6094 -96.5550 81° East 537 618 35,000  Level Minneapolis Center
03:48AM 41.6361 -96.3372 83° East 537 618 35,000  Level Minneapolis Center
03:49AM 41.6511 -96.1631 81° East 542 624 35,000  Level Minneapolis Center
03:50AM 41.6744 -95.9644 82° East 537 618 35,000  Level Minneapolis Center
03:51AM 41.6956 -95.7653 83° East 537 618 35,000  Level Minneapolis Center
03:52AM 41.7142 -95.5661 82° East 537 618 35,000  Level Minneapolis Center
03:53AM 41.7344 -95.3722 83° East 537 618 35,000  Level Minneapolis Center
03:54AM 41.7525 -95.1700 83° East 537 618 35,000  Level Minneapolis Center
03:55AM 41.7700 -94.9703 82° East 537 618 35,000  Level Minneapolis Center
03:56AM 41.7911 -94.7761 84° East 537 618 35,000  Level Minneapolis Center
03:58AM 41.8267 -94.3081 84° East 534 615 35,000  Level Chicago Center
03:59AM 41.8411 -94.1111 83° East 528 608 35,000  Level Chicago Center
04:00AM 41.8594 -93.9172 83° East 528 608 35,000  Level Chicago Center
04:01AM 41.8775 -93.7206 83° East 528 608 35,000  Level Chicago Center
04:02AM 41.8950 -93.5292 84° East 523 602 35,000  Level Chicago Center
04:03AM 41.9103 -93.3347 83° East 523 602 35,000  Level Chicago Center
04:04AM 41.9275 -93.1375 84° East 518 596 35,000  Level Chicago Center
04:05AM 41.9422 -92.9400 84° East 524 603 35,000  Level Chicago Center
04:06AM 41.9586 -92.7428 85° East 524 603 35,000  Level Chicago Center
04:07AM 41.9725 -92.5450 84° East 529 609 35,000  Level Chicago Center
04:08AM 41.9883 -92.3447 83° East 529 609 35,000  Level Chicago Center
04:09AM 42.0058 -92.1528 85° East 534 615 35,000  Level Chicago Center
04:10AM 42.0192 -91.9353 85° East 534 615 35,000  Level Chicago Center
04:11AM 42.0319 -91.7372 84° East 534 615 35,000  Level Chicago Center
04:12AM 42.0461 -91.5392 85° East 534 615 35,000  Level Chicago Center
04:13AM 42.0581 -91.3411 85° East 534 615 35,000  Level Chicago Center
04:14AM 42.0697 -91.1456 85° East 534 615 35,000  Level Chicago Center
04:15AM 42.0831 -90.9531 86° East 528 608 35,000  Level Chicago Center
04:16AM 42.0939 -90.7575 86° East 522 601 35,000  Level Chicago Center
04:17AM 42.1044 -90.5644 86° East 515 593 35,000  Level Chicago Center
04:18AM 42.1147 -90.3744 86° East 515 593 35,000  Level Chicago Center
04:19AM 42.1244 -90.2008 85° East 515 593 35,000  Level Chicago Center
04:20AM 42.1361 -90.0108 87° East 515 593 35,000  Level Chicago Center
04:21AM 42.1433 -89.8036 86° East 510 587 35,000  Level Chicago Center
04:22AM 42.1522 -89.6131 86° East 510 587 35,000  Level Chicago Center
04:23AM 42.1608 -89.4228 87° East 510 587 35,000  Level Chicago Center
04:24AM 42.1692 -89.2322 87° East 505 581 35,000  Level Chicago Center
04:25AM 42.1769 -89.0472 87° East 500 575 35,000  Level Chicago Center
04:26AM 42.1847 -88.8594 86° East 500 575 35,000  Level Chicago Center
04:27AM 42.1942 -88.6772 89° East 494 568 35,000  Level Chicago Center
04:28AM 42.1972 -88.4894 101° East 494 568 35,000  Level Chicago Center
04:29AM 42.1706 -88.3078 101° East 494 568 35,000  Level Chicago Center
04:30AM 42.1439 -88.1261 101° East 499 574 35,000  Level Chicago Center
04:31AM 42.1189 -87.9475 102° East 499 574 35,000  Level Chicago Center
04:32AM 42.0917 -87.7744 103° East 484 557 35,000  Level Chicago Center
04:33AM 42.0619 -87.5992 101° East 484 557 35,000  Level Chicago Center
04:34AM 42.0361 -87.4236 101° East 484 557 35,000  Level Chicago Center
04:35AM 42.0103 -87.2483 103° East 484 557 35,000  Level Chicago Center
04:36AM 41.9797 -87.0733 101° East 484 557 35,000  Level Chicago Center
04:37AM 41.9533 -86.8983 103° East 484 557 35,000  Level Chicago Center
04:38AM 41.9222 -86.7236 101° East 484 557 35,000  Level Chicago Center
04:39AM 41.8975 -86.5572 103° East 489 563 35,000  Level Chicago Center
04:40AM 41.8656 -86.3692 103° East 484 557 35,000  Level Chicago Center
04:41AM 41.8358 -86.1922 104° East 484 557 35,000  Level Chicago Center
04:42AM 41.8039 -86.0153 103° East 484 557 35,000  Level Chicago Center
04:43AM 41.7736 -85.8414 102° East 484 557 35,000  Level Chicago Center
04:44AM 41.7478 -85.6842 102° East 484 557 35,000  Level Chicago Center
04:45AM 41.7242 -85.5353 104° East 484 557 35,000 -60 Level Chicago Center
04:47AM 41.6728 -85.2597 104° East 502 578 34,900  Descending Cleveland Center
04:48AM 41.6383 -85.0764 104° East 502 578 35,000 60 Climbing Cleveland Center
04:49AM 41.6089 -84.9189 104° East 491 565 35,100  Climbing Cleveland Center
04:50AM 41.5761 -84.7389 104° East 491 565 35,100  Level Cleveland Center
04:51AM 41.5425 -84.5647 103° East 491 565 35,100 -60 Level Cleveland Center
04:52AM 41.5094 -84.3767 105° East 481 554 35,000 -120 Descending Cleveland Center
04:53AM 41.4786 -84.2281 104° East 475 547 34,900  Descending Cleveland Center
04:54AM 41.4467 -84.0544 104° East 470 541 35,000  Climbing Cleveland Center
04:55AM 41.4142 -83.8836 105° East 470 541 35,000  Level Cleveland Center
04:56AM 41.3794 -83.7103 104° East 480 552 35,000  Level Cleveland Center
04:57AM 41.3464 -83.5400 104° East 474 545 35,000  Level Cleveland Center
04:58AM 41.3131 -83.3669 106° East 479 551 35,000  Level Cleveland Center
04:59AM 41.2739 -83.1803 104° East 479 551 35,000  Level Cleveland Center
05:00AM 41.2400 -83.0050 105° East 485 558 35,000  Level Cleveland Center
05:01AM 41.2061 -82.8325 105° East 480 552 35,000  Level Cleveland Center
05:02AM 41.1717 -82.6631 105° East 480 552 35,000  Level Cleveland Center
05:03AM 41.1353 -82.4853 106° East 480 552 35,000  Level Cleveland Center
05:04AM 41.0983 -82.3161 105° East 480 552 35,000  Level Cleveland Center
05:05AM 41.0633 -82.1392 106° East 480 552 35,000  Level Cleveland Center
05:06AM 41.0261 -81.9647 106° East 480 552 35,000  Level Cleveland Center
05:07AM 40.9883 -81.7933 105° East 480 552 35,000  Level Cleveland Center
05:08AM 40.9525 -81.6194 106° East 480 552 35,000  Level Cleveland Center
05:09AM 40.9144 -81.4458 106° East 480 552 35,000  Level Cleveland Center
05:10AM 40.8781 -81.2750 106° East 485 558 35,000  Level Cleveland Center
05:11AM 40.8414 -81.1044 105° East 480 552 35,000  Level Cleveland Center
05:12AM 40.8067 -80.9342 107° East 480 552 35,000  Level Cleveland Center
05:13AM 40.7675 -80.7642 108° East 480 552 35,000  Level Cleveland Center
05:14AM 40.7300 -80.6133 106° East 480 552 35,000  Level Cleveland Center
05:15AM 40.6925 -80.4461 106° East 480 552 35,000  Level Cleveland Center
05:16AM 40.6525 -80.2631 108° East 475 547 35,000  Level Cleveland Center
05:17AM 40.6122 -80.0964 98° East 475 547 35,000  Level Cleveland Center
05:18AM 40.5947 -79.9242 99° East 475 547 35,000  Level Cleveland Center
05:19AM 40.5747 -79.7494 97° East 475 547 35,000  Level Cleveland Center
05:20AM 40.5589 -79.5856 98° East 464 534 35,000  Level Cleveland Center
05:21AM 40.5408 -79.4192 99° East 464 534 35,000  Level Cleveland Center
05:22AM 40.5225 -79.2719 98° East 464 534 35,000  Level Cleveland Center
05:23AM 40.5036 -79.1031 98° East 464 534 35,100  Climbing Cleveland Center
05:24AM 40.4847 -78.9369 98° East 464 534 35,000 -60 Descending Cleveland Center
05:25AM 40.4656 -78.7683 98° East 464 534 35,000  Level Cleveland Center
05:26AM 40.4481 -78.5994 99° East 464 534 35,000  Level Cleveland Center
05:27AM 40.4131 -78.3064 99° East 459 528 35,000 -420 Level New York Center
05:29AM 40.3731 -77.9775 99° East 454 522 33,500 -1,200 Descending New York Center
05:30AM 40.3536 -77.8147 99° East 454 522 31,500 -2,040 Descending New York Center
05:31AM 40.3339 -77.6519 99° East 449 517 29,500 -2,040 Descending New York Center
05:33AM 40.3079 -77.4399 99° East 445 512 27,000 -1,920 Descending FlightAware ADS-B
05:33AM 40.2924 -77.3162 99° East 434 499 25,700 -1,740 Descending FlightAware ADS-B
05:34AM 40.2825 -77.2386 100° East 428 493 24,800 -1,800 Descending FlightAware ADS-B
05:35AM 40.2712 -77.1504 100° East 424 488 23,800 -1,740 Descending FlightAware ADS-B
05:35AM 40.2612 -77.0728 100° East 420 483 22,900 -1,800 Descending FlightAware ADS-B
05:36AM 40.2514 -76.9973 100° East 411 473 22,000 -1,800 Descending FlightAware ADS-B
05:36AM 40.2417 -76.9236 100° East 405 466 21,100 -1,800 Descending FlightAware ADS-B
05:37AM 40.2295 -76.8296 100° East 399 459 19,900 -1,740 Descending FlightAware ADS-B
05:37AM 40.2202 -76.7588 100° East 393 452 19,100 -1,740 Descending FlightAware ADS-B
05:38AM 40.2108 -76.6881 100° East 392 451 18,200 -1,800 Descending FlightAware ADS-B
05:38AM 40.2014 -76.6177 100° East 389 448 17,300 -1,800 Descending FlightAware ADS-B
05:39AM 40.1922 -76.5480 100° East 382 440 16,400 -1,800 Descending FlightAware ADS-B
05:39AM 40.1830 -76.4804 100° East 375 432 15,500 -1,800 Descending FlightAware ADS-B
05:40AM 40.1740 -76.4134 100° East 369 425 14,600 -1,800 Descending FlightAware ADS-B
05:40AM 40.1650 -76.3472 100° East 365 420 13,700 -1,680 Descending FlightAware ADS-B
05:41AM 40.1561 -76.2820 100° East 363 418 12,900 -1,800 Descending FlightAware ADS-B
05:41AM 40.1471 -76.2154 100° East 358 412 11,900 -1,800 Descending FlightAware ADS-B
05:42AM 40.1383 -76.1516 100° East 351 404 11,100 -1,200 Descending FlightAware ADS-B
05:42AM 40.1298 -76.0894 100° East 330 380 10,700 -720 Descending FlightAware ADS-B
05:43AM 40.1218 -76.0320 100° East 310 357 10,400 -840 Descending FlightAware ADS-B
05:43AM 40.1164 -75.9928 100° East 304 350 10,000 -1,200 Descending FlightAware ADS-B
05:43AM 40.1125 -75.9646 100° East 301 346 9,700 -1,320 Descending FlightAware ADS-B
05:44AM 40.1084 -75.9353 100° East 298 343 9,300 -1,680 Descending FlightAware ADS-B
05:44AM 40.1064 -75.9210 100° East 297 342 9,000 -1,740 Descending FlightAware ADS-B
05:44AM 40.1030 -75.8969 105° East 297 342 8,700 -1,800 Descending FlightAware ADS-B
05:44AM 40.1016 -75.8901 110° East 295 339 8,500 -2,280 Descending FlightAware ADS-B
05:44AM 40.0998 -75.8836 117° Southeast 295 339 8,400 -1,500 Descending FlightAware ADS-B
05:44AM 40.0973 -75.8771 124° Southeast 293 337 8,300 -1,740 Descending FlightAware ADS-B
05:44AM 40.0950 -75.8726 128° Southeast 291 335 8,200 -1,740 Descending FlightAware ADS-B
05:44AM 40.0921 -75.8677 135° Southeast 290 334 8,100 -1,740 Descending FlightAware ADS-B
05:44AM 40.0888 -75.8634 140° Southeast 288 331 8,000 -1,740 Descending FlightAware ADS-B
05:44AM 40.0848 -75.8590 147° Southeast 288 331 7,900 -1,500 Descending FlightAware ADS-B
05:45AM 40.0809 -75.8557 151° Southeast 287 330 7,800 -1,380 Descending FlightAware ADS-B
05:45AM 40.0754 -75.8517 155° Southeast 285 328 7,700 -1,200 Descending FlightAware ADS-B
05:45AM 40.0569 -75.8404 156° South 280 322 7,400 -1,380 Descending FlightAware ADS-B
05:45AM 40.0382 -75.8294 156° South 277 319 7,000 -1,320 Descending FlightAware ADS-B
05:45AM 40.0203 -75.8188 155° Southeast 274 315 6,700 -1,380 Descending FlightAware ADS-B
05:46AM 40.0029 -75.8083 155° Southeast 271 312 6,300 -1,440 Descending FlightAware ADS-B
05:46AM 39.9853 -75.7977 155° Southeast 269 310 6,000 -1,020 Descending FlightAware ADS-B
05:46AM 39.9682 -75.7874 156° South 267 307 5,800 -480 Descending FlightAware ADS-B
05:46AM 39.9553 -75.7798 155° Southeast 271 312 5,800  Level FlightAware ADS-B
05:47AM 39.9381 -75.7695 155° Southeast 270 311 5,800  Level FlightAware ADS-B
05:47AM 39.9206 -75.7591 155° Southeast 269 310 5,800  Level FlightAware ADS-B
05:47AM 39.9035 -75.7489 155° Southeast 268 308 5,800 -600 Level FlightAware ADS-B
05:47AM 39.8866 -75.7388 155° Southeast 264 304 5,500 -1,440 Descending FlightAware ADS-B
05:48AM 39.8700 -75.7288 156° South 264 304 5,100 -1,800 Descending FlightAware ADS-B
05:48AM 39.8529 -75.7187 156° South 267 307 4,600 -1,800 Descending FlightAware ADS-B
05:48AM 39.8351 -75.7083 156° South 268 308 4,200 -1,440 Descending FlightAware ADS-B
05:48AM 39.8182 -75.6984 150° Southeast 265 305 3,900 -1,200 Descending FlightAware ADS-B
05:48AM 39.8130 -75.6945 142° Southeast 266 306 3,800 -780 Descending FlightAware ADS-B
05:49AM 39.8100 -75.6915 137° Southeast 267 307 3,800  Level FlightAware ADS-B
05:49AM 39.8072 -75.6881 132° Southeast 267 307 3,800  Level FlightAware ADS-B
05:49AM 39.8040 -75.6834 124° Southeast 264 304 3,800  Level FlightAware ADS-B
05:49AM 39.8013 -75.6781 117° Southeast 262 302 3,800  Level FlightAware ADS-B
05:49AM 39.7995 -75.6734 113° Southeast 258 297 3,800  Level FlightAware ADS-B
05:49AM 39.7976 -75.6675 108° East 253 291 3,800  Level FlightAware ADS-B
05:49AM 39.7954 -75.6585 107° East 247 284 3,800  Level FlightAware ADS-B
05:49AM 39.7929 -75.6476 103° East 241 277 3,800  Level FlightAware ADS-B
05:49AM 39.7920 -75.6425 99° East 239 275 3,800  Level FlightAware ADS-B
05:49AM 39.7914 -75.6374 93° East 238 274 3,800  Level FlightAware ADS-B
05:49AM 39.7912 -75.6323 88° East 237 273 3,800  Level FlightAware ADS-B
05:49AM 39.7913 -75.6276 83° East 236 272 3,800  Level FlightAware ADS-B
05:49AM 39.7918 -75.6222 80° East 236 272 3,800  Level FlightAware ADS-B
05:49AM 39.7924 -75.6178 76° East 236 272 3,800  Level FlightAware ADS-B
05:50AM 39.7965 -75.5967 76° East 234 269 3,800  Level FlightAware ADS-B
05:50AM 39.8004 -75.5765 76° East 222 255 3,800  Level FlightAware ADS-B
05:50AM 39.8030 -75.5633 76° East 216 249 3,800  Level FlightAware ADS-B
05:50AM 39.8067 -75.5446 75° East 208 239 3,800 -240 Level FlightAware ADS-B
05:51AM 39.8103 -75.5267 75° East 201 231 3,700 -840 Descending FlightAware ADS-B
05:51AM 39.8139 -75.5089 75° East 202 232 3,400 -1,200 Descending FlightAware ADS-B
05:51AM 39.8175 -75.4911 75° East 200 230 3,100 -1,200 Descending FlightAware ADS-B
05:51AM 39.8212 -75.4731 76° East 197 227 2,800 -1,020 Descending FlightAware ADS-B
05:52AM 39.8246 -75.4557 75° East 192 221 2,600 -1,020 Descending FlightAware ADS-B
05:52AM 39.8280 -75.4388 75° East 188 216 2,300 -1,020 Descending FlightAware ADS-B
05:52AM 39.8313 -75.4225 76° East 186 214 2,100 -900 Descending FlightAware ADS-B
05:52AM 39.8340 -75.4087 75° East 185 213 1,900 -840 Descending FlightAware ADS-B
05:53AM 39.8375 -75.3917 75° East 175 201 1,700 -960 Descending FlightAware ADS-B
05:53AM 39.8406 -75.3762 75° East 168 193 1,400 -1,020 Descending FlightAware ADS-B
05:53AM 39.8436 -75.3615 75° East 152 175 1,200 -780 Descending FlightAware ADS-B
05:53AM 39.8462 -75.3485 76° East 141 162 1,000 -780 Descending FlightAware ADS-B
05:54AM 39.8486 -75.3362 75° East 134 154 800 -780 Descending FlightAware ADS-B
05:54AM 39.8510 -75.3245 76° East 134 154 600 -840 Descending FlightAware ADS-B
05:54AM 39.8523 -75.3179 76° East 133 153 500 -780 Descending FlightAware ADS-B
05:54AM 39.8547 -75.3057 76° East 132 152 300 -780 Descending FlightAware ADS-B